createdAt,value
2022-10-19T00:02:17.618Z,3.55
2022-10-19T00:05:03.322Z,3.95
2022-10-19T00:07:48.746Z,3.20
2022-10-19T00:10:34.226Z,3.88
2022-10-19T00:13:19.692Z,5.88
2022-10-19T00:16:12.974Z,4.35
2022-10-19T00:18:59.878Z,3.08
2022-10-19T00:21:45.437Z,3.33
2022-10-19T00:24:30.857Z,3.50
2022-10-19T00:27:17.656Z,3.42
2022-10-19T00:30:03.352Z,3.83
2022-10-19T00:32:48.754Z,3.55
2022-10-19T00:35:34.304Z,3.67
2022-10-19T00:38:21.169Z,6.43
2022-10-19T00:41:06.155Z,3.33
2022-10-19T00:44:22.820Z,4.05
2022-10-19T00:47:08.533Z,2.42
2022-10-19T00:49:55.015Z,5.15
2022-10-19T00:52:40.401Z,2.75
2022-10-19T00:55:26.184Z,2.63
2022-10-19T00:58:11.903Z,4.38
2022-10-19T01:00:58.669Z,4.30
2022-10-19T01:03:45.256Z,3.53
2022-10-19T01:06:31.041Z,2.33
2022-10-19T01:09:17.035Z,5.75
2022-10-19T01:12:35.804Z,4.82
2022-10-19T01:15:27.191Z,5.45
2022-10-19T01:18:19.328Z,4.18
2022-10-19T01:21:25.261Z,2.53
2022-10-19T01:24:21.417Z,4.15
2022-10-19T01:27:14.621Z,2.10
2022-10-19T01:30:14.416Z,6.47
2022-10-19T01:33:03.972Z,2.53
2022-10-19T01:36:13.450Z,3.45
2022-10-19T01:39:18.747Z,3.83
2022-10-19T01:42:17.191Z,2.67
2022-10-19T01:45:05.866Z,6.00
2022-10-19T01:48:05.085Z,3.80
2022-10-19T01:51:12.727Z,4.28
2022-10-19T01:54:02.051Z,3.00
2022-10-19T01:56:49.500Z,3.15
2022-10-19T01:59:36.230Z,4.28
2022-10-19T02:02:27.951Z,5.03
2022-10-19T02:05:14.085Z,2.53
2022-10-19T02:08:04.430Z,4.63
2022-10-19T02:10:50.534Z,4.07
2022-10-19T02:13:37.708Z,5.93
2022-10-19T02:16:40.584Z,3.15
2022-10-19T02:19:26.236Z,6.45
2022-10-19T02:22:12.786Z,4.93
2022-10-19T02:24:58.757Z,4.63
2022-10-19T02:27:44.326Z,5.45
2022-10-19T02:30:29.506Z,3.85
2022-10-19T02:33:15.636Z,5.13
2022-10-19T02:36:01.189Z,2.53
2022-10-19T02:38:46.825Z,3.88
2022-10-19T02:42:01.808Z,4.13
2022-10-19T02:44:58.565Z,3.50
2022-10-19T02:48:07.544Z,3.05
2022-10-19T02:50:53.149Z,3.17
2022-10-19T02:53:38.432Z,2.28
2022-10-19T02:56:23.834Z,2.10
2022-10-19T02:59:09.228Z,2.22
2022-10-19T03:01:54.715Z,1.92
2022-10-19T03:04:41.693Z,2.25
2022-10-19T03:07:26.994Z,3.00
2022-10-19T03:10:12.775Z,2.85
2022-10-19T03:12:58.717Z,2.17
2022-10-19T03:15:43.896Z,2.75
2022-10-19T03:18:29.427Z,2.45
2022-10-19T03:21:15.058Z,2.10
2022-10-19T03:24:00.756Z,2.40
2022-10-19T03:26:46.169Z,1.75
2022-10-19T03:29:31.817Z,2.00
2022-10-19T03:32:17.396Z,2.05
2022-10-19T03:35:02.675Z,2.55
2022-10-19T03:37:48.255Z,2.85
2022-10-19T03:40:33.822Z,2.65
2022-10-19T03:43:19.052Z,3.05
2022-10-19T03:46:04.439Z,2.20
2022-10-19T03:48:50.564Z,2.47
2022-10-19T03:51:36.551Z,2.22
2022-10-19T03:54:24.986Z,2.50
2022-10-19T03:57:12.992Z,1.90
2022-10-19T03:59:58.192Z,2.58
2022-10-19T04:02:43.408Z,2.88
2022-10-19T04:05:28.754Z,3.30
2022-10-19T04:08:14.213Z,2.78
2022-10-19T04:11:09.212Z,4.70
2022-10-19T04:13:55.689Z,2.03
2022-10-19T04:16:41.491Z,2.35
2022-10-19T04:19:26.784Z,3.17
2022-10-19T04:22:12.185Z,2.40
2022-10-19T04:24:57.811Z,2.17
2022-10-19T04:27:43.263Z,2.45
2022-10-19T04:30:28.739Z,3.30
2022-10-19T04:33:14.385Z,2.95
2022-10-19T04:36:05.527Z,3.17
2022-10-19T04:38:51.189Z,2.28
2022-10-19T04:41:38.291Z,2.08
2022-10-19T04:47:14.133Z,3.22
2022-10-19T04:49:59.805Z,2.42
2022-10-19T04:52:45.643Z,2.45
2022-10-19T04:55:30.817Z,2.72
2022-10-19T04:58:16.607Z,2.58
2022-10-19T05:01:17.319Z,1.98
2022-10-19T05:04:03.398Z,2.35
2022-10-19T05:06:48.658Z,1.85
2022-10-19T05:09:34.140Z,2.50
2022-10-19T05:12:19.448Z,1.90
2022-10-19T05:15:05.122Z,3.45
2022-10-19T05:17:50.409Z,4.30
2022-10-19T05:20:35.733Z,4.85
2022-10-19T05:23:21.249Z,3.15
2022-10-19T05:26:09.648Z,2.83
2022-10-19T05:28:59.123Z,4.70
2022-10-19T05:31:44.904Z,3.72
2022-10-19T05:34:29.960Z,2.58
2022-10-19T05:37:16.985Z,3.63
2022-10-19T05:40:02.323Z,3.85
2022-10-19T05:42:47.816Z,2.95
2022-10-19T05:45:33.373Z,1.60
2022-10-19T05:48:18.609Z,3.75
2022-10-19T05:51:06.823Z,2.88
2022-10-19T05:53:53.676Z,3.28
2022-10-19T05:56:40.564Z,4.82
2022-10-19T05:59:26.243Z,2.75
2022-10-19T06:02:14.394Z,2.00
2022-10-19T06:04:59.809Z,3.08
2022-10-19T06:07:45.379Z,2.42
2022-10-19T06:10:30.775Z,2.75
2022-10-19T06:13:18.441Z,2.45
2022-10-19T06:16:05.298Z,2.30
2022-10-19T06:18:50.716Z,2.63
2022-10-19T06:21:35.860Z,3.05
2022-10-19T06:24:21.331Z,2.75
2022-10-19T06:27:06.950Z,3.75
2022-10-19T06:29:52.844Z,2.97
2022-10-19T06:32:38.333Z,3.95
2022-10-19T06:35:24.151Z,4.45
2022-10-19T06:38:09.706Z,2.65
2022-10-19T06:40:59.532Z,2.95
2022-10-19T06:43:50.145Z,4.95
2022-10-19T06:46:35.780Z,2.67
2022-10-19T06:49:20.791Z,5.25
2022-10-19T06:52:07.570Z,5.13
2022-10-19T06:54:52.806Z,3.83
2022-10-19T06:57:38.707Z,4.93
2022-10-19T07:00:23.893Z,4.35
2022-10-19T07:03:09.545Z,4.53
2022-10-19T07:06:00.367Z,3.28
2022-10-19T07:08:45.997Z,5.10
2022-10-19T07:11:31.655Z,4.80
2022-10-19T07:14:17.495Z,3.45
2022-10-19T07:17:02.819Z,4.35
2022-10-19T07:19:48.444Z,5.90
2022-10-19T07:22:34.127Z,6.22
2022-10-19T07:25:19.667Z,5.10
2022-10-19T07:28:05.266Z,5.05
2022-10-19T07:30:50.758Z,4.45
2022-10-19T07:33:37.146Z,3.90
2022-10-19T07:36:22.962Z,4.50
2022-10-19T07:39:08.550Z,3.45
2022-10-19T07:41:53.806Z,5.07
2022-10-19T07:44:39.106Z,5.40
2022-10-19T07:47:24.524Z,6.07
2022-10-19T07:50:10.233Z,6.47
2022-10-19T07:52:55.787Z,7.43
2022-10-19T07:55:41.401Z,4.50
2022-10-19T07:58:27.108Z,5.68
2022-10-19T08:01:18.032Z,6.25
2022-10-19T08:07:09.846Z,4.03
2022-10-19T08:09:55.336Z,5.85
2022-10-19T08:12:40.838Z,7.57
2022-10-19T08:15:26.524Z,5.45
2022-10-19T08:18:11.634Z,4.97
2022-10-19T08:20:57.186Z,6.50
2022-10-19T08:23:42.536Z,7.50
2022-10-19T08:26:33.795Z,4.50
2022-10-19T08:29:20.607Z,7.38
2022-10-19T08:32:06.030Z,5.40
2022-10-19T08:34:51.298Z,7.95
2022-10-19T08:37:44.728Z,10.32
2022-10-19T08:40:31.185Z,5.78
2022-10-19T08:43:30.472Z,4.68
2022-10-19T08:46:26.197Z,6.82
2022-10-19T08:49:19.058Z,7.13
2022-10-19T08:52:10.585Z,7.78
2022-10-19T08:55:02.942Z,4.22
2022-10-19T08:58:13.230Z,5.22
2022-10-19T09:01:11.093Z,5.18
2022-10-19T09:04:03.882Z,6.82
2022-10-19T09:09:51.656Z,5.70
2022-10-19T09:12:58.802Z,6.88
2022-10-19T09:15:46.166Z,6.45
2022-10-19T09:18:34.029Z,4.72
2022-10-19T09:21:30.905Z,4.28
2022-10-19T09:24:49.037Z,5.05
2022-10-19T09:27:45.617Z,5.93
2022-10-19T09:30:34.261Z,5.22
2022-10-19T09:33:31.369Z,8.40
2022-10-19T09:36:22.947Z,5.35
2022-10-19T09:39:14.136Z,6.45
2022-10-19T09:42:20.723Z,6.38
2022-10-19T09:45:19.748Z,4.90
2022-10-19T09:48:19.238Z,4.78
2022-10-19T09:51:12.287Z,6.32
2022-10-19T09:53:57.989Z,4.97
2022-10-19T09:56:53.506Z,4.72
2022-10-19T09:59:38.529Z,5.95
2022-10-19T10:02:34.293Z,7.22
2022-10-19T10:05:24.909Z,6.70
2022-10-19T10:08:17.128Z,8.05
2022-10-19T10:11:10.469Z,7.60
2022-10-19T10:13:57.945Z,5.40
2022-10-19T10:16:43.414Z,7.53
2022-10-19T10:19:31.132Z,4.93
2022-10-19T10:22:32.141Z,5.03
2022-10-19T10:25:18.900Z,5.43
2022-10-19T10:28:18.942Z,5.38
2022-10-19T10:31:07.519Z,7.70
2022-10-19T10:34:10.742Z,8.48
2022-10-19T10:37:16.226Z,7.22
2022-10-19T10:40:03.977Z,4.45
2022-10-19T10:42:52.460Z,4.85
2022-10-19T10:45:51.308Z,4.25
2022-10-19T10:48:41.009Z,6.75
2022-10-19T10:51:49.215Z,8.48
2022-10-19T10:54:37.459Z,2.58
2022-10-19T10:57:25.446Z,3.88
2022-10-19T11:00:20.107Z,5.00
2022-10-19T11:03:19.268Z,4.50
2022-10-19T11:06:04.645Z,5.53
2022-10-19T11:09:15.857Z,5.22
2022-10-19T11:12:15.236Z,5.97
2022-10-19T11:15:18.781Z,5.28
2022-10-19T11:18:10.297Z,5.88
2022-10-19T11:21:02.540Z,4.88
2022-10-19T11:24:26.294Z,6.63
2022-10-19T11:27:43.520Z,3.75
2022-10-19T11:30:33.367Z,4.32
2022-10-19T11:39:30.441Z,5.75
2022-10-19T11:42:43.006Z,4.38
2022-10-19T11:45:36.055Z,6.57
2022-10-19T11:48:44.176Z,6.68
2022-10-19T11:51:59.061Z,4.70
2022-10-19T11:54:57.936Z,8.82
2022-10-19T11:58:02.100Z,6.40
2022-10-19T12:01:00.138Z,5.35
2022-10-19T12:04:22.903Z,4.43
2022-10-19T12:07:41.280Z,9.02
2022-10-19T12:10:59.116Z,6.05
2022-10-19T12:14:00.704Z,6.28
2022-10-19T12:16:51.856Z,7.60
2022-10-19T12:19:49.188Z,8.63
2022-10-19T12:22:37.392Z,3.80
2022-10-19T12:25:23.654Z,5.20
2022-10-19T12:28:16.545Z,5.70
2022-10-19T12:31:02.648Z,4.88
2022-10-19T12:34:06.976Z,6.82
2022-10-19T12:37:00.707Z,7.68
2022-10-19T12:40:11.550Z,6.88
2022-10-19T12:43:12.664Z,8.55
2022-10-19T12:46:35.804Z,7.28
2022-10-19T12:52:13.996Z,7.90
2022-10-19T12:55:10.025Z,7.05
2022-10-19T12:58:19.647Z,5.03
2022-10-19T13:01:07.061Z,5.45
2022-10-19T13:04:18.013Z,6.38
2022-10-19T13:07:08.497Z,5.90
2022-10-19T13:10:02.710Z,9.85
2022-10-19T13:12:49.509Z,7.35
2022-10-19T13:15:38.233Z,7.60
2022-10-19T13:19:01.168Z,8.50
2022-10-19T13:25:19.510Z,7.70
2022-10-19T13:28:07.832Z,9.00
2022-10-19T13:30:54.647Z,3.63
2022-10-19T13:33:45.803Z,7.13
2022-10-19T13:36:31.821Z,6.22
2022-10-19T13:39:17.484Z,7.13
2022-10-19T13:42:02.920Z,4.72
2022-10-19T13:44:48.517Z,6.20
2022-10-19T13:47:39.536Z,6.03
2022-10-19T13:50:43.597Z,5.53
2022-10-19T13:53:49.842Z,6.03
2022-10-19T13:56:49.036Z,6.68
2022-10-19T14:00:20.172Z,7.30
2022-10-19T14:03:46.370Z,6.30
2022-10-19T14:06:44.807Z,7.68
2022-10-19T14:09:36.937Z,8.30
2022-10-19T14:15:33.842Z,5.35
2022-10-19T14:18:28.320Z,4.53
2022-10-19T14:21:13.598Z,4.53
2022-10-19T14:24:00.054Z,6.30
2022-10-19T14:26:46.925Z,4.40
2022-10-19T14:29:56.424Z,7.75
2022-10-19T14:32:41.537Z,6.65
2022-10-19T14:35:39.302Z,6.05
2022-10-19T14:38:37.192Z,6.18
2022-10-19T14:41:28.835Z,5.60
2022-10-19T14:44:36.270Z,5.20
2022-10-19T14:47:27.055Z,7.60
2022-10-19T14:50:12.785Z,6.18
2022-10-19T14:53:10.230Z,7.15
2022-10-19T14:55:59.152Z,5.30
2022-10-19T14:58:54.286Z,8.63
2022-10-19T15:01:40.538Z,6.00
2022-10-19T15:04:34.412Z,8.07
2022-10-19T15:07:40.769Z,6.30
2022-10-19T15:10:40.984Z,10.70
2022-10-19T15:13:36.869Z,6.70
2022-10-19T15:16:56.988Z,5.65
2022-10-19T15:19:42.091Z,7.50
2022-10-19T15:22:33.701Z,6.53
2022-10-19T15:25:36.980Z,6.68
2022-10-19T15:28:41.449Z,8.20
2022-10-19T15:31:29.332Z,5.18
2022-10-19T15:34:26.949Z,6.68
2022-10-19T15:37:20.142Z,7.32
2022-10-19T15:40:26.150Z,5.07
2022-10-19T15:43:35.696Z,7.40
2022-10-19T15:46:32.848Z,7.38
2022-10-19T15:49:51.341Z,6.45
2022-10-19T15:52:36.837Z,5.35
2022-10-19T15:55:22.388Z,8.18
2022-10-19T15:58:10.587Z,6.28
2022-10-19T16:00:56.064Z,6.35
2022-10-19T16:03:41.548Z,6.97
2022-10-19T16:06:30.551Z,16.80
2022-10-19T16:09:21.267Z,4.32
2022-10-19T16:12:06.852Z,6.80
2022-10-19T16:14:53.699Z,5.07
2022-10-19T16:17:39.801Z,7.57
2022-10-19T16:20:26.376Z,5.53
2022-10-19T16:23:12.902Z,7.05
2022-10-19T16:25:58.210Z,9.23
2022-10-19T16:28:44.335Z,5.88
2022-10-19T16:31:29.657Z,4.90
2022-10-19T16:34:15.246Z,5.78
2022-10-19T16:37:04.065Z,5.80
2022-10-19T16:39:52.263Z,9.23
2022-10-19T16:42:38.103Z,8.57
2022-10-19T16:45:23.508Z,9.00
2022-10-19T16:48:12.681Z,7.63
2022-10-19T16:51:28.049Z,5.78
2022-10-19T16:54:15.448Z,7.38
2022-10-19T16:57:03.667Z,8.75
2022-10-19T17:02:44.471Z,6.68
2022-10-19T17:05:31.710Z,8.43
2022-10-19T17:08:17.293Z,5.97
2022-10-19T17:11:24.098Z,6.18
2022-10-19T17:14:12.561Z,8.25
2022-10-19T17:16:58.009Z,8.65
2022-10-19T17:19:43.671Z,7.22
2022-10-19T17:22:29.016Z,8.02
2022-10-19T17:25:14.540Z,8.77
2022-10-19T17:27:59.882Z,9.10
2022-10-19T17:30:47.585Z,9.10
2022-10-19T17:33:33.126Z,7.40
2022-10-19T17:36:25.094Z,7.75
2022-10-19T17:39:17.444Z,7.38
2022-10-19T17:42:04.864Z,8.15
2022-10-19T17:44:50.372Z,8.88
2022-10-19T17:47:35.940Z,9.40
2022-10-19T17:50:22.247Z,8.43
2022-10-19T17:53:07.541Z,9.27
2022-10-19T17:55:52.953Z,9.63
2022-10-19T17:58:39.908Z,5.88
2022-10-19T18:01:26.277Z,7.43
2022-10-19T18:04:11.816Z,9.32
2022-10-19T18:06:57.153Z,9.25
2022-10-19T18:09:42.765Z,5.63
2022-10-19T18:12:28.121Z,11.60
2022-10-19T18:15:13.581Z,8.65
2022-10-19T18:17:59.407Z,8.80
2022-10-19T18:20:44.915Z,10.40
2022-10-19T18:23:29.920Z,9.30
2022-10-19T18:26:19.664Z,9.07
2022-10-19T18:29:21.381Z,6.50
2022-10-19T18:34:56.812Z,6.28
2022-10-19T18:37:42.238Z,10.50
2022-10-19T18:40:27.704Z,8.07
2022-10-19T18:43:13.263Z,7.82
2022-10-19T18:46:00.101Z,7.78
2022-10-19T18:48:46.094Z,7.15
2022-10-19T18:51:31.971Z,8.63
2022-10-19T18:54:17.544Z,10.90
2022-10-19T18:57:02.887Z,7.03
2022-10-19T18:59:48.332Z,8.57
2022-10-19T19:02:45.666Z,8.90
2022-10-19T19:05:33.052Z,6.03
2022-10-19T19:08:18.475Z,6.65
2022-10-19T19:11:21.985Z,8.40
2022-10-19T19:14:16.339Z,8.65
2022-10-19T19:17:01.587Z,8.25
2022-10-19T19:19:46.904Z,10.45
2022-10-19T19:22:33.138Z,11.27
2022-10-19T19:25:18.488Z,10.27
2022-10-19T19:28:04.096Z,10.13
2022-10-19T19:30:49.665Z,13.40
2022-10-19T19:33:35.715Z,10.65
2022-10-19T19:36:21.346Z,8.18
2022-10-19T19:39:06.915Z,9.68
2022-10-19T19:41:52.199Z,7.28
2022-10-19T19:44:37.873Z,8.65
2022-10-19T19:47:23.812Z,9.68
2022-10-19T19:50:09.557Z,8.52
2022-10-19T19:52:54.785Z,9.55
2022-10-19T19:55:40.294Z,10.68
2022-10-19T19:58:26.142Z,7.95
2022-10-19T20:01:18.223Z,8.07
2022-10-19T20:04:04.129Z,9.82
2022-10-19T20:06:49.781Z,9.10
2022-10-19T20:09:35.136Z,8.75
2022-10-19T20:12:20.825Z,8.73
2022-10-19T20:15:06.713Z,8.48
2022-10-19T20:17:52.093Z,9.95
2022-10-19T20:20:39.709Z,11.25
2022-10-19T20:23:25.183Z,6.50
2022-10-19T20:26:18.692Z,9.38
2022-10-19T20:29:04.911Z,12.18
2022-10-19T20:31:49.987Z,10.65
2022-10-19T20:34:35.930Z,8.70
2022-10-19T20:37:21.858Z,8.85
2022-10-19T20:40:08.903Z,7.85
2022-10-19T20:42:56.252Z,8.95
2022-10-19T20:45:41.421Z,8.20
2022-10-19T20:48:26.824Z,10.02
2022-10-19T20:51:21.176Z,7.40
2022-10-19T20:54:09.748Z,9.85
2022-10-19T20:56:55.084Z,7.82
2022-10-19T20:59:40.495Z,8.93
2022-10-19T21:02:26.396Z,8.88
2022-10-19T21:05:11.825Z,10.30
2022-10-19T21:07:57.694Z,7.65
2022-10-19T21:10:42.881Z,7.35
2022-10-19T21:13:28.338Z,7.35
2022-10-19T21:16:18.669Z,8.40
2022-10-19T21:19:10.580Z,8.52
2022-10-19T21:22:01.560Z,8.15
2022-10-19T21:24:46.870Z,6.50
2022-10-19T21:27:32.350Z,10.80
2022-10-19T21:30:17.743Z,7.63
2022-10-19T21:33:03.189Z,7.25
2022-10-19T21:38:39.477Z,7.20
2022-10-19T21:41:26.387Z,9.77
2022-10-19T21:44:12.237Z,7.13
2022-10-19T21:46:57.649Z,6.90
2022-10-19T21:49:43.065Z,6.80
2022-10-19T21:52:28.705Z,7.72
2022-10-19T21:55:14.181Z,6.88
2022-10-19T21:57:59.632Z,9.05
2022-10-19T22:00:44.904Z,8.30
2022-10-19T22:03:30.520Z,8.82
2022-10-19T22:06:16.023Z,5.70
2022-10-19T22:09:02.881Z,7.82
2022-10-19T22:11:48.721Z,6.82
2022-10-19T22:14:34.030Z,6.70
2022-10-19T22:17:19.472Z,9.68
2022-10-19T22:20:05.639Z,6.88
2022-10-19T22:22:52.800Z,6.53
2022-10-19T22:25:40.263Z,10.60
2022-10-19T22:28:26.277Z,7.85
2022-10-19T22:31:12.334Z,7.78
2022-10-19T22:34:00.107Z,6.70
2022-10-19T22:36:45.693Z,7.47
2022-10-19T22:39:31.000Z,6.93
2022-10-19T22:42:28.614Z,6.85
2022-10-19T22:45:14.149Z,9.20
2022-10-19T22:47:59.744Z,9.02
2022-10-19T22:50:45.565Z,5.40
2022-10-19T22:53:31.014Z,7.00
2022-10-19T22:56:16.284Z,7.05
2022-10-19T22:59:02.817Z,6.13
2022-10-19T23:01:48.350Z,7.32
2022-10-19T23:04:34.184Z,6.88
2022-10-19T23:07:19.530Z,7.80
2022-10-19T23:10:06.242Z,10.77
2022-10-19T23:12:52.417Z,5.72
2022-10-19T23:15:41.704Z,7.15
2022-10-19T23:18:33.842Z,7.68
2022-10-19T23:21:19.168Z,10.30
2022-10-19T23:24:04.555Z,8.68
2022-10-19T23:26:50.123Z,6.85
2022-10-19T23:29:35.361Z,8.35
2022-10-19T23:32:20.637Z,6.72
2022-10-19T23:35:07.279Z,8.18
2022-10-19T23:37:52.619Z,8.73
2022-10-19T23:40:38.010Z,9.05
2022-10-19T23:43:23.438Z,10.25
2022-10-19T23:46:09.242Z,7.95
2022-10-19T23:48:54.625Z,7.45
2022-10-19T23:51:39.880Z,9.32
2022-10-19T23:54:25.503Z,9.60
2022-10-19T23:57:10.480Z,8.65
2022-10-19T23:59:55.802Z,8.95
